Time;durP1;ratioP1;P1;durP2;ratioP2;P2;SDS_P1;SDS_P2;PMS_P1;PMS_P2;Temp;Humidity;BMP_temperature;BMP_pressure;BME280_temperature;BME280_humidity;BME280_pressure;Samples;Min_cycle;Max_cycle;Signal;HPM_P1;HPM_P2
2021/08/18 00:01:10;;;;;;;42.75;13.70;;;;;;;;;;5065929;28;20028;-60
2021/08/18 00:03:37;;;;;;;45.38;13.18;;;;;;;;;;5065259;28;20052;-60
2021/08/18 00:06:02;;;;;;;41.45;12.88;;;;;;;;;;5063578;28;20094;-60
2021/08/18 00:08:28;;;;;;;42.53;12.38;;;;;;;;;;5067779;28;20089;-60
2021/08/18 00:10:53;;;;;;;44.35;13.73;;;;;;;;;;5065738;28;20086;-60
2021/08/18 00:13:22;;;;;;;41.38;12.48;;;;;;;;;;5063378;28;20406;-59
2021/08/18 00:15:49;;;;;;;35.05;12.57;;;;;;;;;;5068916;28;20024;-60
2021/08/18 00:18:15;;;;;;;39.88;12.80;;;;;;;;;;5065810;28;20440;-60
2021/08/18 00:20:40;;;;;;;39.17;12.77;;;;;;;;;;5068393;28;20105;-60
2021/08/18 00:23:06;;;;;;;42.50;12.93;;;;;;;;;;5065572;28;20501;-60
2021/08/18 00:25:32;;;;;;;44.15;13.18;;;;;;;;;;5066177;28;20036;-60
2021/08/18 00:27:57;;;;;;;42.22;13.50;;;;;;;;;;5065340;28;20119;-60
2021/08/18 00:30:23;;;;;;;44.25;13.82;;;;;;;;;;5068596;28;20474;-60
2021/08/18 00:32:49;;;;;;;44.42;12.80;;;;;;;;;;5066766;28;20100;-60
2021/08/18 00:35:14;;;;;;;41.95;12.73;;;;;;;;;;5069508;28;20104;-60
2021/08/18 00:37:40;;;;;;;41.10;13.48;;;;;;;;;;5066173;28;20036;-60
2021/08/18 00:40:06;;;;;;;38.60;12.85;;;;;;;;;;5064887;28;20074;-60
2021/08/18 00:42:33;;;;;;;39.17;12.95;;;;;;;;;;5066075;28;20498;-60
2021/08/18 00:44:58;;;;;;;39.25;12.15;;;;;;;;;;5066613;28;20036;-60
2021/08/18 00:47:24;;;;;;;38.55;12.82;;;;;;;;;;5064885;28;20035;-60
2021/08/18 00:49:49;;;;;;;42.08;13.02;;;;;;;;;;5063996;28;20420;-60
2021/08/18 00:52:15;;;;;;;43.17;13.38;;;;;;;;;;5066059;28;20111;-60
2021/08/18 00:54:40;;;;;;;41.40;13.30;;;;;;;;;;5066280;28;20411;-60
2021/08/18 00:57:06;;;;;;;45.40;13.68;;;;;;;;;;5058870;28;20075;-60
2021/08/18 00:59:32;;;;;;;49.25;13.52;;;;;;;;;;5063366;28;20024;-60
2021/08/18 01:01:59;;;;;;;45.22;14.20;;;;;;;;;;5069146;28;20036;-60
2021/08/18 01:04:25;;;;;;;41.40;13.15;;;;;;;;;;5065693;28;20054;-60
2021/08/18 01:06:50;;;;;;;40.78;13.13;;;;;;;;;;5067500;28;20103;-60
2021/08/18 01:09:18;;;;;;;46.45;14.00;;;;;;;;;;5069072;28;20031;-60
2021/08/18 01:11:45;;;;;;;52.45;13.80;;;;;;;;;;5068040;28;20629;-60
2021/08/18 01:14:11;;;;;;;38.50;12.95;;;;;;;;;;5065768;28;20131;-60
2021/08/18 01:16:43;;;;;;;44.88;14.63;;;;;;;;;;5063545;28;20184;-60
2021/08/18 01:19:10;;;;;;;43.55;14.02;;;;;;;;;;5068788;28;20063;-60
2021/08/18 01:21:40;;;;;;;46.72;14.68;;;;;;;;;;5074086;28;20031;-60
2021/08/18 01:24:06;;;;;;;41.13;13.68;;;;;;;;;;5066148;28;20037;-60
2021/08/18 01:26:32;;;;;;;42.72;13.32;;;;;;;;;;5065858;28;20123;-60
2021/08/18 01:28:59;;;;;;;43.15;13.45;;;;;;;;;;5068279;28;20061;-60
2021/08/18 01:31:24;;;;;;;44.63;14.07;;;;;;;;;;5069900;28;20025;-60
2021/08/18 01:33:50;;;;;;;49.70;16.88;;;;;;;;;;5069412;28;20024;-60
2021/08/18 01:36:15;;;;;;;47.53;14.90;;;;;;;;;;5068292;28;20093;-60
2021/08/18 01:38:41;;;;;;;47.00;14.50;;;;;;;;;;5069474;28;20044;-60
2021/08/18 01:41:08;;;;;;;48.05;14.65;;;;;;;;;;5069846;28;20399;-60
2021/08/18 01:43:34;;;;;;;42.42;13.75;;;;;;;;;;5069895;28;20037;-60
2021/08/18 01:45:59;;;;;;;45.85;14.75;;;;;;;;;;5069442;28;20027;-60
2021/08/18 01:48:29;;;;;;;48.25;14.90;;;;;;;;;;5067731;28;20089;-60
2021/08/18 01:50:56;;;;;;;49.33;14.73;;;;;;;;;;5068346;28;20031;-60
2021/08/18 01:53:48;;;;;;;51.85;15.05;;;;;;;;;;5073068;28;20073;-60
2021/08/18 01:56:16;;;;;;;51.17;14.63;;;;;;;;;;5064634;28;20093;-60
2021/08/18 01:58:43;;;;;;;44.33;14.05;;;;;;;;;;5067381;28;20485;-60
2021/08/18 02:01:12;;;;;;;47.22;14.27;;;;;;;;;;5067150;28;20028;-60
2021/08/18 02:03:38;;;;;;;;;;;;;;;;;;5067065;28;20020;-60
2021/08/18 02:06:03;;;;;;;43.50;14.93;;;;;;;;;;5068753;28;19943;-60
2021/08/18 02:08:29;;;;;;;47.22;15.55;;;;;;;;;;5066570;28;20032;-60
2021/08/18 02:10:54;;;;;;;47.33;14.20;;;;;;;;;;5066897;28;20020;-60
2021/08/18 02:13:20;;;;;;;42.08;13.85;;;;;;;;;;5070608;28;20159;-60
2021/08/18 02:15:46;;;;;;;52.13;15.85;;;;;;;;;;5066883;28;20482;-60
2021/08/18 02:18:14;;;;;;;44.70;14.95;;;;;;;;;;5067929;28;20425;-60
2021/08/18 02:20:41;;;;;;;41.13;14.30;;;;;;;;;;5068955;28;20057;-60
2021/08/18 02:23:07;;;;;;;49.85;15.60;;;;;;;;;;5067919;28;20028;-60
2021/08/18 02:25:33;;;;;;;43.80;13.98;;;;;;;;;;5068425;28;20031;-60
2021/08/18 02:27:58;;;;;;;46.35;13.88;;;;;;;;;;5069345;28;20032;-60
2021/08/18 02:30:26;;;;;;;43.42;14.48;;;;;;;;;;5069604;28;20291;-60
2021/08/18 02:32:52;;;;;;;49.17;15.90;;;;;;;;;;5066932;28;20016;-60
2021/08/18 02:35:18;;;;;;;43.25;13.60;;;;;;;;;;5067392;28;20479;-60
2021/08/18 02:37:45;;;;;;;47.50;14.90;;;;;;;;;;5065945;28;20077;-59
2021/08/18 02:40:11;;;;;;;53.38;16.08;;;;;;;;;;5071987;28;20431;-60
2021/08/18 02:42:38;;;;;;;55.72;16.25;;;;;;;;;;5065296;28;20667;-59
2021/08/18 02:45:06;;;;;;;49.03;15.98;;;;;;;;;;5065574;28;20447;-59
2021/08/18 02:47:32;;;;;;;46.75;15.15;;;;;;;;;;5065909;28;20196;-59
2021/08/18 02:49:57;;;;;;;50.42;14.95;;;;;;;;;;5071207;28;20282;-59
2021/08/18 02:52:23;;;;;;;49.55;15.40;;;;;;;;;;5071105;28;20032;-59
2021/08/18 02:54:48;;;;;;;47.42;14.45;;;;;;;;;;5069910;28;20120;-59
2021/08/18 02:57:13;;;;;;;48.05;15.00;;;;;;;;;;5065217;28;20040;-59
2021/08/18 02:59:39;;;;;;;45.38;14.98;;;;;;;;;;5066412;28;20057;-59
2021/08/18 03:02:05;;;;;;;44.28;14.05;;;;;;;;;;5067458;28;20032;-61
2021/08/18 03:04:31;;;;;;;49.45;16.23;;;;;;;;;;5069499;28;20058;-59
2021/08/18 03:06:57;;;;;;;49.55;15.57;;;;;;;;;;5065909;28;20060;-59
2021/08/18 03:09:23;;;;;;;52.42;15.40;;;;;;;;;;5068436;28;20562;-59
2021/08/18 03:11:49;;;;;;;51.42;15.52;;;;;;;;;;5071743;28;20025;-59
2021/08/18 03:14:15;;;;;;;47.28;15.20;;;;;;;;;;5067764;28;20448;-59
2021/08/18 03:16:41;;;;;;;49.72;14.75;;;;;;;;;;5066452;28;20126;-59
2021/08/18 03:19:07;;;;;;;49.95;14.85;;;;;;;;;;5065859;28;20020;-59
2021/08/18 03:21:33;;;;;;;49.13;15.45;;;;;;;;;;5068544;28;20072;-60
2021/08/18 03:23:58;;;;;;;47.25;15.27;;;;;;;;;;5070886;28;20073;-59
2021/08/18 03:26:23;;;;;;;56.60;15.68;;;;;;;;;;5069317;28;20096;-59
2021/08/18 03:28:49;;;;;;;41.35;14.38;;;;;;;;;;5065624;28;20292;-59
2021/08/18 03:31:15;;;;;;;53.53;15.50;;;;;;;;;;5066135;28;20097;-59
2021/08/18 03:33:41;;;;;;;55.20;15.50;;;;;;;;;;5069134;28;20386;-59
2021/08/18 03:36:06;;;;;;;49.92;15.30;;;;;;;;;;5067086;28;20021;-59
2021/08/18 03:38:32;;;;;;;52.20;15.65;;;;;;;;;;5067008;28;20033;-59
2021/08/18 03:40:57;;;;;;;52.05;15.73;;;;;;;;;;5064951;28;20119;-59
2021/08/18 03:43:22;;;;;;;50.95;14.95;;;;;;;;;;5066541;28;20028;-59
2021/08/18 03:45:48;;;;;;;48.60;15.63;;;;;;;;;;5069039;28;20031;-59
2021/08/18 03:48:14;;;;;;;47.22;16.25;;;;;;;;;;5064857;28;20063;-59
2021/08/18 03:50:39;;;;;;;44.88;14.43;;;;;;;;;;5065261;28;21288;-59
2021/08/18 03:53:05;;;;;;;50.75;15.82;;;;;;;;;;5069276;28;20388;-59
2021/08/18 03:55:30;;;;;;;50.30;14.68;;;;;;;;;;5067091;28;20398;-59
2021/08/18 03:57:55;;;;;;;51.28;16.63;;;;;;;;;;5069260;28;20028;-59
2021/08/18 04:00:21;;;;;;;50.05;15.45;;;;;;;;;;5070734;28;20459;-58
2021/08/18 04:02:47;;;;;;;51.30;17.30;;;;;;;;;;5068175;28;20407;-59
2021/08/18 04:05:13;;;;;;;48.90;15.48;;;;;;;;;;5069679;28;20027;-59
2021/08/18 04:07:38;;;;;;;50.90;15.98;;;;;;;;;;5065401;28;20125;-59
2021/08/18 04:10:05;;;;;;;52.70;16.17;;;;;;;;;;5065947;28;20036;-59
2021/08/18 04:12:31;;;;;;;51.25;16.02;;;;;;;;;;5067351;28;20025;-59
2021/08/18 04:14:56;;;;;;;52.45;17.17;;;;;;;;;;5063208;28;20037;-59
2021/08/18 04:17:22;;;;;;;49.58;16.80;;;;;;;;;;5066209;28;20028;-59
2021/08/18 04:19:48;;;;;;;47.40;14.18;;;;;;;;;;5059372;28;20082;-59
2021/08/18 04:22:14;;;;;;;46.20;14.82;;;;;;;;;;5067030;28;20449;-59
2021/08/18 04:24:39;;;;;;;46.90;14.65;;;;;;;;;;5072354;28;20028;-59
2021/08/18 04:27:05;;;;;;;48.50;16.27;;;;;;;;;;5064030;28;20027;-59
2021/08/18 04:29:30;;;;;;;47.88;15.18;;;;;;;;;;5066749;28;20489;-59
2021/08/18 04:31:57;;;;;;;50.40;16.40;;;;;;;;;;5067994;28;20024;-59
2021/08/18 04:34:23;;;;;;;50.20;15.43;;;;;;;;;;5067239;28;20032;-59
2021/08/18 04:36:48;;;;;;;44.28;14.50;;;;;;;;;;5067269;28;20020;-60
2021/08/18 04:39:14;;;;;;;45.40;14.40;;;;;;;;;;5067690;28;20031;-60
2021/08/18 04:41:40;;;;;;;45.03;14.98;;;;;;;;;;5070909;28;20033;-60
2021/08/18 04:44:05;;;;;;;43.70;14.95;;;;;;;;;;5072886;28;20419;-60
2021/08/18 04:46:31;;;;;;;43.75;15.30;;;;;;;;;;5067538;28;20020;-60
2021/08/18 04:48:56;;;;;;;43.90;14.13;;;;;;;;;;5067251;28;20081;-60
2021/08/18 04:51:21;;;;;;;48.95;15.13;;;;;;;;;;5069114;28;20527;-60
2021/08/18 04:53:47;;;;;;;44.95;13.98;;;;;;;;;;5073602;28;20024;-60
2021/08/18 04:56:13;;;;;;;44.85;14.40;;;;;;;;;;5069730;28;20116;-60
2021/08/18 04:58:38;;;;;;;48.38;13.88;;;;;;;;;;5070864;28;20028;-60
2021/08/18 05:01:03;;;;;;;41.50;14.35;;;;;;;;;;5068233;28;20062;-60
2021/08/18 05:03:29;;;;;;;44.90;14.93;;;;;;;;;;5069045;28;20173;-59
2021/08/18 05:05:54;;;;;;;42.08;14.38;;;;;;;;;;5069609;28;20536;-60
2021/08/18 05:08:20;;;;;;;41.65;12.48;;;;;;;;;;5067724;28;20402;-58
2021/08/18 05:10:45;;;;;;;43.90;14.38;;;;;;;;;;5068520;28;20494;-59
2021/08/18 05:13:11;;;;;;;43.78;15.55;;;;;;;;;;5066695;28;20054;-59
2021/08/18 05:15:36;;;;;;;50.95;14.82;;;;;;;;;;5067800;28;20021;-59
2021/08/18 05:18:02;;;;;;;44.97;14.05;;;;;;;;;;5068988;28;20450;-59
2021/08/18 05:20:27;;;;;;;47.45;16.25;;;;;;;;;;5068388;28;20040;-59
2021/08/18 05:22:53;;;;;;;43.25;14.98;;;;;;;;;;5067621;28;20036;-59
2021/08/18 05:25:18;;;;;;;46.90;16.88;;;;;;;;;;5067330;28;20028;-59
2021/08/18 05:27:45;;;;;;;48.42;16.15;;;;;;;;;;5074113;28;20107;-59
2021/08/18 05:30:13;;;;;;;45.85;15.32;;;;;;;;;;5070748;28;20020;-59
2021/08/18 05:32:39;;;;;;;52.65;16.13;;;;;;;;;;5064760;28;20052;-59
2021/08/18 05:35:07;;;;;;;46.22;15.45;;;;;;;;;;5070804;28;20032;-59
2021/08/18 05:37:32;;;;;;;44.03;14.77;;;;;;;;;;5067966;28;20021;-59
2021/08/18 05:39:58;;;;;;;43.28;15.00;;;;;;;;;;5068965;28;20383;-59
2021/08/18 05:42:23;;;;;;;46.47;15.23;;;;;;;;;;5069324;28;20086;-59
2021/08/18 05:44:49;;;;;;;47.90;15.13;;;;;;;;;;5067343;28;20032;-59
2021/08/18 05:47:14;;;;;;;42.88;14.20;;;;;;;;;;5064275;28;20428;-59
2021/08/18 05:49:40;;;;;;;49.20;16.83;;;;;;;;;;5066853;28;20072;-59
2021/08/18 05:52:06;;;;;;;49.10;15.90;;;;;;;;;;5068881;28;20109;-59
2021/08/18 05:54:31;;;;;;;44.55;15.25;;;;;;;;;;5068497;28;20032;-59
2021/08/18 05:56:56;;;;;;;45.83;14.80;;;;;;;;;;5069752;28;20479;-59
2021/08/18 05:59:22;;;;;;;41.40;14.88;;;;;;;;;;5066663;28;20063;-59
2021/08/18 06:01:47;;;;;;;40.92;14.35;;;;;;;;;;5067192;28;20491;-59
2021/08/18 06:04:13;;;;;;;39.15;14.10;;;;;;;;;;5073943;28;20037;-59
2021/08/18 06:06:38;;;;;;;38.42;13.75;;;;;;;;;;5065067;28;20024;-59
2021/08/18 06:09:04;;;;;;;40.00;13.77;;;;;;;;;;5070048;28;20398;-59
2021/08/18 06:11:29;;;;;;;41.28;13.20;;;;;;;;;;5069994;28;20040;-59
2021/08/18 06:13:55;;;;;;;42.17;13.07;;;;;;;;;;5068655;28;20051;-59
2021/08/18 06:16:21;;;;;;;39.70;13.30;;;;;;;;;;5066328;28;20090;-59
2021/08/18 06:18:47;;;;;;;47.67;16.38;;;;;;;;;;5066889;28;20307;-59
2021/08/18 06:21:13;;;;;;;42.80;14.18;;;;;;;;;;5070538;28;20482;-59
2021/08/18 06:23:38;;;;;;;43.45;14.63;;;;;;;;;;5075093;28;20123;-59
2021/08/18 06:26:03;;;;;;;39.45;13.57;;;;;;;;;;5074900;28;20347;-59
2021/08/18 06:28:29;;;;;;;49.17;16.05;;;;;;;;;;5066913;28;20028;-59
2021/08/18 06:30:54;;;;;;;42.53;14.23;;;;;;;;;;5067770;28;20135;-59
2021/08/18 06:33:20;;;;;;;42.70;14.10;;;;;;;;;;5067953;28;20028;-59
2021/08/18 06:35:46;;;;;;;49.42;14.02;;;;;;;;;;5069829;28;20386;-59
2021/08/18 06:38:11;;;;;;;44.58;14.48;;;;;;;;;;5067720;28;20516;-59
2021/08/18 06:40:37;;;;;;;42.40;14.88;;;;;;;;;;5064954;28;20058;-59
2021/08/18 06:43:03;;;;;;;42.10;13.88;;;;;;;;;;5064267;28;20057;-59
2021/08/18 06:45:31;;;;;;;45.42;14.95;;;;;;;;;;5068148;28;20030;-59
2021/08/18 06:47:57;;;;;;;49.58;15.20;;;;;;;;;;5066745;28;20562;-59
2021/08/18 06:50:22;;;;;;;47.45;14.27;;;;;;;;;;5066763;28;20115;-59
2021/08/18 06:52:48;;;;;;;47.63;15.38;;;;;;;;;;5065286;28;20024;-59
2021/08/18 06:55:13;;;;;;;45.13;15.20;;;;;;;;;;5068561;28;20444;-59
2021/08/18 06:57:39;;;;;;;41.88;14.65;;;;;;;;;;5065258;28;20043;-59
2021/08/18 07:00:06;;;;;;;41.90;13.93;;;;;;;;;;5064922;28;20651;-58
2021/08/18 07:02:32;;;;;;;49.60;15.15;;;;;;;;;;5064455;28;20051;-59
2021/08/18 07:04:57;;;;;;;41.90;14.93;;;;;;;;;;5065477;28;20475;-59
2021/08/18 07:07:23;;;;;;;44.53;14.50;;;;;;;;;;5063700;28;20032;-59
2021/08/18 07:09:48;;;;;;;39.85;13.88;;;;;;;;;;5066358;28;20059;-59
2021/08/18 07:12:13;;;;;;;40.10;12.13;;;;;;;;;;5065115;28;20052;-59
2021/08/18 07:14:39;;;;;;;42.08;13.10;;;;;;;;;;5064852;28;20040;-59
2021/08/18 07:17:04;;;;;;;41.10;15.65;;;;;;;;;;5065277;28;20025;-59
2021/08/18 07:19:30;;;;;;;39.35;13.02;;;;;;;;;;5068004;28;20476;-59
2021/08/18 07:21:55;;;;;;;38.10;13.40;;;;;;;;;;5069797;28;20083;-59
2021/08/18 07:24:21;;;;;;;37.83;13.02;;;;;;;;;;5068165;28;20032;-59
2021/08/18 07:26:47;;;;;;;38.42;12.85;;;;;;;;;;5066493;28;20131;-59
2021/08/18 07:29:12;;;;;;;33.63;11.73;;;;;;;;;;5064480;28;20414;-59
2021/08/18 07:31:38;;;;;;;33.97;12.27;;;;;;;;;;5046368;28;20043;-59
2021/08/18 07:34:03;;;;;;;35.70;12.43;;;;;;;;;;5067238;28;20028;-59
2021/08/18 07:36:29;;;;;;;37.55;12.27;;;;;;;;;;5065057;28;20538;-59
2021/08/18 07:38:54;;;;;;;35.50;11.93;;;;;;;;;;5065155;28;20121;-59
2021/08/18 07:41:20;;;;;;;38.25;13.40;;;;;;;;;;5067262;28;20533;-59
2021/08/18 07:43:45;;;;;;;35.88;11.55;;;;;;;;;;5067131;28;20035;-59
2021/08/18 07:46:10;;;;;;;31.58;11.48;;;;;;;;;;5065856;28;20115;-59
2021/08/18 07:48:36;;;;;;;27.83;10.77;;;;;;;;;;5063747;28;20032;-59
2021/08/18 07:51:02;;;;;;;38.65;12.57;;;;;;;;;;5062830;28;20036;-59
2021/08/18 07:53:28;;;;;;;33.88;12.43;;;;;;;;;;5065176;28;20046;-59
2021/08/18 07:55:54;;;;;;;33.05;11.73;;;;;;;;;;5065919;28;20036;-59
2021/08/18 07:58:19;;;;;;;31.05;10.73;;;;;;;;;;5062806;28;20426;-59
2021/08/18 08:00:44;;;;;;;30.00;11.25;;;;;;;;;;5066489;28;20032;-59
2021/08/18 08:03:10;;;;;;;32.47;11.02;;;;;;;;;;5064286;28;20021;-59
2021/08/18 08:05:36;;;;;;;33.33;12.13;;;;;;;;;;5064670;28;20032;-59
2021/08/18 08:08:02;;;;;;;36.30;11.95;;;;;;;;;;5063959;28;20043;-59
2021/08/18 08:10:27;;;;;;;34.63;12.25;;;;;;;;;;5064328;28;20486;-59
2021/08/18 08:12:53;;;;;;;34.00;12.18;;;;;;;;;;5064034;28;20159;-59
2021/08/18 08:15:18;;;;;;;29.65;10.70;;;;;;;;;;5060015;28;20609;-60
2021/08/18 08:17:44;;;;;;;29.17;9.88;;;;;;;;;;5065571;28;20035;-59
2021/08/18 08:20:10;;;;;;;27.88;10.30;;;;;;;;;;5068188;28;20067;-59
2021/08/18 08:22:36;;;;;;;26.67;9.32;;;;;;;;;;5066711;28;20024;-60
2021/08/18 08:25:03;;;;;;;28.38;11.00;;;;;;;;;;5066195;28;20036;-59
2021/08/18 08:27:28;;;;;;;28.63;10.70;;;;;;;;;;5064522;28;20040;-60
2021/08/18 08:29:54;;;;;;;28.08;10.73;;;;;;;;;;5066382;28;20035;-60
2021/08/18 08:32:19;;;;;;;28.10;10.80;;;;;;;;;;5060659;28;20111;-60
2021/08/18 08:34:45;;;;;;;30.98;9.73;;;;;;;;;;5065957;28;20025;-60
2021/08/18 08:37:10;;;;;;;26.58;10.50;;;;;;;;;;5066915;28;20565;-59
2021/08/18 08:39:35;;;;;;;26.77;10.23;;;;;;;;;;5068193;28;20047;-60
2021/08/18 08:42:04;;;;;;;28.98;10.07;;;;;;;;;;5062151;28;20806;-60
2021/08/18 08:44:31;;;;;;;29.60;10.45;;;;;;;;;;5068567;28;20548;-60
2021/08/18 08:46:57;;;;;;;25.95;9.27;;;;;;;;;;5064943;28;20042;-60
2021/08/18 08:49:22;;;;;;;23.05;9.00;;;;;;;;;;5064406;28;20093;-60
2021/08/18 08:51:50;;;;;;;25.10;9.40;;;;;;;;;;5068110;28;20028;-60
2021/08/18 08:54:17;;;;;;;25.88;9.82;;;;;;;;;;5063791;28;20048;-60
2021/08/18 08:56:43;;;;;;;28.23;9.93;;;;;;;;;;5066369;28;20039;-60
2021/08/18 08:59:09;;;;;;;23.00;9.43;;;;;;;;;;5065655;28;20032;-60
2021/08/18 09:02:02;;;;;;;23.08;9.75;;;;;;;;;;5066835;28;24518;-60
2021/08/18 09:04:29;;;;;;;25.33;9.27;;;;;;;;;;5058693;28;20028;-60
2021/08/18 09:07:07;;;;;;;26.35;9.27;;;;;;;;;;5061273;28;20028;-60
2021/08/18 09:09:33;;;;;;;27.02;9.60;;;;;;;;;;5064057;28;20033;-59
2021/08/18 09:12:11;;;;;;;25.70;9.45;;;;;;;;;;5064400;28;20028;-59
2021/08/18 09:14:38;;;;;;;29.73;9.88;;;;;;;;;;5064870;28;20032;-59
2021/08/18 09:17:41;;;;;;;27.60;10.02;;;;;;;;;;5066060;28;20530;-59
2021/08/18 09:20:11;;;;;;;24.65;8.95;;;;;;;;;;5065792;28;20396;-59
2021/08/18 09:22:46;;;;;;;26.92;9.82;;;;;;;;;;5066844;28;20139;-59
2021/08/18 09:25:18;;;;;;;23.73;9.38;;;;;;;;;;5069888;28;20016;-59
2021/08/18 09:27:55;;;;;;;25.83;9.45;;;;;;;;;;5070135;28;20086;-59
2021/08/18 09:30:41;;;;;;;26.15;10.13;;;;;;;;;;5069124;28;20028;-59
2021/08/18 09:33:09;;;;;;;25.23;9.65;;;;;;;;;;5067570;28;20086;-59
2021/08/18 09:35:34;;;;;;;23.30;9.07;;;;;;;;;;5069642;28;20491;-60
2021/08/18 09:38:00;;;;;;;25.33;9.80;;;;;;;;;;5069383;28;20033;-60
2021/08/18 09:40:29;;;;;;;25.05;8.68;;;;;;;;;;5065568;28;20028;-59
2021/08/18 09:43:05;;;;;;;;;;;;;;;;;;5069615;28;20102;-59
2021/08/18 09:45:34;;;;;;;23.33;9.40;;;;;;;;;;5066385;28;19913;-59
2021/08/18 09:48:08;;;;;;;24.57;10.10;;;;;;;;;;5066734;28;20024;-59
2021/08/18 09:50:53;;;;;;;21.48;8.00;;;;;;;;;;5068491;28;20627;-59
2021/08/18 09:53:24;;;;;;;20.73;7.00;;;;;;;;;;5066015;28;20035;-59
2021/08/18 09:55:56;;;;;;;20.40;7.57;;;;;;;;;;5068318;28;20024;-59
2021/08/18 09:58:24;;;;;;;21.73;7.35;;;;;;;;;;5067627;28;20062;-60
2021/08/18 10:00:50;;;;;;;18.15;7.40;;;;;;;;;;5067748;28;20021;-59
2021/08/18 10:03:16;;;;;;;16.77;7.03;;;;;;;;;;5065474;28;20368;-59
2021/08/18 10:05:42;;;;;;;16.88;6.65;;;;;;;;;;5067400;28;20040;-59
2021/08/18 10:08:08;;;;;;;15.07;6.28;;;;;;;;;;5066115;28;20025;-60
2021/08/18 10:10:37;;;;;;;15.80;6.22;;;;;;;;;;5067022;28;20024;-60
2021/08/18 10:13:02;;;;;;;13.55;6.03;;;;;;;;;;5067067;28;20031;-60
2021/08/18 10:15:28;;;;;;;16.05;5.47;;;;;;;;;;5068246;28;20033;-59
2021/08/18 10:17:54;;;;;;;13.75;5.80;;;;;;;;;;5067391;28;20020;-59
2021/08/18 10:20:22;;;;;;;15.70;5.85;;;;;;;;;;5069046;28;20086;-59
2021/08/18 10:23:00;;;;;;;14.90;5.25;;;;;;;;;;5066136;28;20055;-60
2021/08/18 10:25:33;;;;;;;13.40;5.22;;;;;;;;;;5060969;28;20544;-60
2021/08/18 10:27:59;;;;;;;12.82;5.32;;;;;;;;;;5067870;28;20021;-60
2021/08/18 10:30:26;;;;;;;14.55;4.65;;;;;;;;;;5067254;28;20150;-60
2021/08/18 10:32:52;;;;;;;12.98;5.30;;;;;;;;;;5068683;28;20498;-60
2021/08/18 10:35:36;;;;;;;9.60;4.80;;;;;;;;;;5065939;28;20040;-59
2021/08/18 10:38:27;;;;;;;11.23;5.15;;;;;;;;;;5067597;28;20036;-60
2021/08/18 10:40:52;;;;;;;10.55;4.85;;;;;;;;;;5065233;28;20510;-60
2021/08/18 10:43:54;;;;;;;11.02;4.88;;;;;;;;;;5071414;28;20034;-60
2021/08/18 10:46:20;;;;;;;12.13;4.75;;;;;;;;;;5066787;28;20415;-60
2021/08/18 10:48:54;;;;;;;10.05;4.32;;;;;;;;;;5067599;28;20032;-59
2021/08/18 10:51:44;;;;;;;8.55;4.10;;;;;;;;;;5067637;28;20518;-60
2021/08/18 10:54:28;;;;;;;10.55;4.70;;;;;;;;;;5065746;28;20043;-60
2021/08/18 10:57:02;;;;;;;8.55;4.22;;;;;;;;;;5064288;28;20052;-60
2021/08/18 10:59:36;;;;;;;9.90;4.05;;;;;;;;;;5065764;28;20024;-60
2021/08/18 11:02:09;;;;;;;7.63;3.65;;;;;;;;;;5067363;28;20111;-60
2021/08/18 11:04:49;;;;;;;10.00;3.65;;;;;;;;;;5065171;28;20028;-59
2021/08/18 11:07:16;;;;;;;6.50;3.15;;;;;;;;;;5062626;28;20120;-59
2021/08/18 11:09:50;;;;;;;6.45;3.10;;;;;;;;;;5063537;28;20454;-60
2021/08/18 11:12:40;;;;;;;8.48;3.63;;;;;;;;;;5063729;28;20517;-61
2021/08/18 11:15:18;;;;;;;6.55;3.35;;;;;;;;;;5068264;28;20127;-61
2021/08/18 11:17:44;;;;;;;5.88;2.90;;;;;;;;;;5081914;28;20525;-60
2021/08/18 11:20:12;;;;;;;6.00;2.95;;;;;;;;;;5067100;28;20051;-61
2021/08/18 11:22:37;;;;;;;7.80;2.90;;;;;;;;;;5068592;28;20470;-61
2021/08/18 11:25:03;;;;;;;8.32;3.30;;;;;;;;;;5067168;28;20068;-61
2021/08/18 11:27:29;;;;;;;5.53;2.80;;;;;;;;;;5069306;28;20097;-61
2021/08/18 11:29:56;;;;;;;6.20;2.90;;;;;;;;;;5064610;28;20028;-61
2021/08/18 11:32:25;;;;;;;5.28;2.70;;;;;;;;;;5066265;28;20024;-61
2021/08/18 11:34:51;;;;;;;4.88;2.65;;;;;;;;;;5063032;28;20024;-61
2021/08/18 11:37:16;;;;;;;5.28;2.25;;;;;;;;;;5066816;28;20023;-60
2021/08/18 11:39:44;;;;;;;5.35;2.67;;;;;;;;;;5068641;28;20084;-61
2021/08/18 11:42:15;;;;;;;10.48;3.13;;;;;;;;;;5065581;28;20028;-61
2021/08/18 11:44:42;;;;;;;4.85;2.65;;;;;;;;;;5067867;28;20028;-61
2021/08/18 11:47:13;;;;;;;5.80;2.72;;;;;;;;;;5066307;28;20111;-61
2021/08/18 11:49:40;;;;;;;4.13;2.40;;;;;;;;;;5063975;28;20025;-61
2021/08/18 11:52:07;;;;;;;3.88;2.35;;;;;;;;;;5071430;28;20469;-61
2021/08/18 11:54:33;;;;;;;3.45;1.90;;;;;;;;;;5067533;28;20024;-61
2021/08/18 11:57:06;;;;;;;4.18;2.28;;;;;;;;;;5069046;28;20070;-62
2021/08/18 11:59:32;;;;;;;5.38;2.50;;;;;;;;;;5065365;28;20066;-61
2021/08/18 12:01:58;;;;;;;3.75;2.00;;;;;;;;;;5065693;28;20044;-61
2021/08/18 12:04:25;;;;;;;8.77;3.35;;;;;;;;;;5066288;28;20064;-61
2021/08/18 12:07:14;;;;;;;5.03;2.60;;;;;;;;;;5065691;28;20032;-61
2021/08/18 12:09:43;;;;;;;4.75;2.40;;;;;;;;;;5063375;28;20032;-61
2021/08/18 12:12:22;;;;;;;3.53;1.90;;;;;;;;;;5062527;28;20356;-61
2021/08/18 12:14:49;;;;;;;3.10;1.80;;;;;;;;;;5062606;28;20032;-61
2021/08/18 12:17:16;;;;;;;2.42;1.88;;;;;;;;;;5065645;28;20032;-62
2021/08/18 12:19:44;;;;;;;3.10;2.00;;;;;;;;;;5065397;28;20039;-61
2021/08/18 12:22:26;;;;;;;4.43;1.77;;;;;;;;;;5065331;28;20082;-61
2021/08/18 12:25:04;;;;;;;3.50;1.80;;;;;;;;;;5062563;28;20050;-61
2021/08/18 12:27:31;;;;;;;2.60;1.70;;;;;;;;;;5064935;28;20495;-61
2021/08/18 12:30:07;;;;;;;2.70;1.52;;;;;;;;;;5064232;28;20044;-61
2021/08/18 12:32:34;;;;;;;6.00;1.85;;;;;;;;;;5065096;28;20379;-61
2021/08/18 12:35:02;;;;;;;2.60;1.50;;;;;;;;;;5066092;28;20028;-61
2021/08/18 12:37:30;;;;;;;3.08;1.88;;;;;;;;;;5065487;28;20064;-62
2021/08/18 12:40:00;;;;;;;3.20;2.00;;;;;;;;;;5066118;28;20032;-61
2021/08/18 12:42:25;;;;;;;2.40;1.70;;;;;;;;;;5062783;28;20043;-61
2021/08/18 12:45:05;;;;;;;5.78;3.50;;;;;;;;;;5069523;28;20017;-61
2021/08/18 12:47:33;;;;;;;5.30;2.60;;;;;;;;;;5068759;28;20449;-61
2021/08/18 12:49:59;;;;;;;3.10;1.65;;;;;;;;;;5064037;28;20035;-61
2021/08/18 12:52:24;;;;;;;4.47;2.05;;;;;;;;;;5066405;28;20025;-61
2021/08/18 12:54:52;;;;;;;3.40;2.25;;;;;;;;;;5066351;28;20104;-61
2021/08/18 12:57:18;;;;;;;3.88;2.40;;;;;;;;;;5064270;28;20082;-61
2021/08/18 12:59:43;;;;;;;5.80;2.85;;;;;;;;;;5065838;28;20041;-62
2021/08/18 13:02:09;;;;;;;3.60;2.60;;;;;;;;;;5066166;28;20039;-61
2021/08/18 13:04:34;;;;;;;5.38;2.20;;;;;;;;;;5068471;28;20063;-62
2021/08/18 13:07:00;;;;;;;4.57;2.42;;;;;;;;;;5066550;28;20034;-61
2021/08/18 13:09:26;;;;;;;4.65;2.28;;;;;;;;;;5068288;28;20046;-61
2021/08/18 13:11:52;;;;;;;4.45;2.25;;;;;;;;;;5068868;28;20086;-61
2021/08/18 13:14:18;;;;;;;4.53;2.30;;;;;;;;;;5066723;28;20036;-61
2021/08/18 13:16:44;;;;;;;4.45;2.10;;;;;;;;;;5072337;28;20506;-61
2021/08/18 13:19:10;;;;;;;4.95;2.08;;;;;;;;;;5068132;28;20713;-61
2021/08/18 13:21:35;;;;;;;3.58;2.20;;;;;;;;;;5069087;28;20027;-62
2021/08/18 13:24:01;;;;;;;3.30;1.88;;;;;;;;;;5068574;28;20028;-61
2021/08/18 13:26:26;;;;;;;6.28;2.92;;;;;;;;;;5066600;28;20595;-61
2021/08/18 13:28:53;;;;;;;3.38;2.03;;;;;;;;;;5068027;28;20032;-61
2021/08/18 13:31:19;;;;;;;3.50;2.20;;;;;;;;;;5071197;28;20049;-61
2021/08/18 13:33:45;;;;;;;4.95;2.60;;;;;;;;;;5069512;28;20096;-61
2021/08/18 13:36:10;;;;;;;4.80;2.33;;;;;;;;;;5066152;28;20039;-61
2021/08/18 13:38:36;;;;;;;4.03;2.33;;;;;;;;;;5067332;28;20028;-62
2021/08/18 13:41:02;;;;;;;3.03;1.90;;;;;;;;;;5060386;28;20078;-62
2021/08/18 13:43:27;;;;;;;3.70;2.08;;;;;;;;;;5066492;28;20039;-61
2021/08/18 13:45:53;;;;;;;2.65;1.75;;;;;;;;;;5067578;28;20025;-62
2021/08/18 13:48:18;;;;;;;3.65;1.83;;;;;;;;;;5068142;28;20027;-61
2021/08/18 13:50:43;;;;;;;8.02;2.58;;;;;;;;;;5068799;28;20498;-61
2021/08/18 13:53:09;;;;;;;3.17;1.88;;;;;;;;;;5073143;28;20377;-61
2021/08/18 13:55:35;;;;;;;5.68;2.47;;;;;;;;;;5070311;28;20054;-61
2021/08/18 13:58:00;;;;;;;5.45;2.67;;;;;;;;;;5066719;28;20050;-61
2021/08/18 14:00:26;;;;;;;5.75;2.60;;;;;;;;;;5067402;28;20047;-61
2021/08/18 14:02:51;;;;;;;4.75;2.65;;;;;;;;;;5068776;28;20607;-61
2021/08/18 14:05:18;;;;;;;3.67;2.50;;;;;;;;;;5069967;28;20395;-61
2021/08/18 14:07:44;;;;;;;7.32;4.32;;;;;;;;;;5068841;28;20032;-61
2021/08/18 14:10:09;;;;;;;5.35;2.83;;;;;;;;;;5067687;28;20031;-61
2021/08/18 14:12:35;;;;;;;11.43;5.57;;;;;;;;;;5066927;28;20024;-62
2021/08/18 14:15:00;;;;;;;26.17;13.77;;;;;;;;;;5071226;28;20043;-61
2021/08/18 14:17:26;;;;;;;11.45;5.50;;;;;;;;;;5069952;28;20017;-61
2021/08/18 14:19:52;;;;;;;4.95;2.83;;;;;;;;;;5066788;28;20025;-61
2021/08/18 14:22:17;;;;;;;6.55;2.90;;;;;;;;;;5069168;28;20029;-61
2021/08/18 14:24:43;;;;;;;3.42;1.98;;;;;;;;;;5068269;28;20031;-61
2021/08/18 14:27:08;;;;;;;3.75;2.40;;;;;;;;;;5069489;28;20093;-61